< < Back
Terminal Aerodrome Forecast


Current Version              Previous Versions:   1  2  3  4  5  6  7  8  9  

Terminal Aerodrome Forecast

254
FTUS42 KFFC 281120
TAFATL
TAF
KATL 281120Z 2812/2918 08010KT P6SM SCT008 BKN015
      TEMPO 2812/2814 BKN008
     FM281400 09010KT P6SM SCT010 BKN020
     FM281700 09010KT P6SM SCT035
     FM282200 10008KT P6SM SCT040 BKN250
     FM290900 10006KT P6SM BKN010 BKN025
     FM291200 12008KT P6SM VCSH BKN010 OVC025 PROB30 2912/2918 6SM
      -SHRA SCT010 OVC025=



Latest METAR

018
SAUS70 KWBC 281300 RRX
MTRATL
METAR KATL 281352Z 09010KT 5SM HZ FEW006 BKN008 OVC010 23/20 A3016 RMK
AO2 SLP203 T02280200


USA.gov is the U.S. government's official web portal to all federal, state and local government web resources and services.